IDs: Format: Raw Decoded Include TAF

Data at: 0630 UTC 24 Mar 2018

K4V0 240615Z AUTO 12003KT 10SM CLR 02/00 A3005 RMK AO2 T00160003
K4V0 240555Z AUTO 09004KT 10SM SCT085 02/01 A3006 RMK AO2 T00230006 10107 20020
K4V0 240535Z AUTO 11005KT 10SM BKN085 03/01 A3007 RMK AO2 T00280010
K4V0 240515Z AUTO 00000KT 10SM SCT085 02/01 A3007 RMK AO2 T00240007
K4V0 240455Z AUTO 00000KT 10SM SCT085 02/01 A3007 RMK AO2 T00240006
K4V0 240435Z AUTO 13004KT 10SM CLR 03/01 A3006 RMK AO2 T00340012
K4V0 240415Z AUTO 13006KT 10SM SCT080 04/02 A3006 RMK AO2 T00380015
K4V0 240355Z AUTO 13006KT 10SM SCT080 05/02 A3005 RMK AO2 T00480018
K4V0 240335Z AUTO 13006KT 10SM SCT080 05/02 A3004 RMK AO2 T00480020
K4V0 240315Z AUTO 15006KT 10SM CLR 05/02 A3003 RMK AO2 T00450018
K4V0 240255Z AUTO 13004KT 10SM CLR 04/02 A3003 RMK AO2 T00440018
K4V0 240235Z AUTO 13005KT 10SM CLR 05/02 A3002 RMK AO2 T00460020
K4V0 240215Z AUTO 09006KT 10SM CLR 06/02 A3001 RMK AO2 T00570021
K4V0 240155Z AUTO 08008KT 10SM CLR 07/02 A3001 RMK AO2 T00650023
K4V0 240135Z AUTO 07010KT 10SM CLR 07/03 A3000 RMK AO2 T00680026
K4V0 240115Z AUTO 08011KT 10SM CLR 07/03 A3000 RMK AO2 T00730028
K4V0 240055Z AUTO 08011KT 10SM SCT060 BKN085 08/03 A3000 RMK AO2 T00770032
K4V0 240035Z AUTO 08009KT 10SM SCT060 BKN075 OVC090 08/04 A3000 RMK AO2 T00820035
K4V0 240015Z AUTO 04007KT 010V070 10SM BKN075 OVC090 10/04 A2999 RMK AO2 T01000035
K4V0 232355Z AUTO 02008KT 10SM OVC075 11/04 A2997 RMK AO2 T01060039 10121 20053
K4V0 232335Z AUTO 35008KT 10SM TS BKN075 BKN090 12/05 A2996 RMK AO2 LTG DSNT NE T01180050
K4V0 232315Z AUTO 33003KT 10SM BKN075 BKN085 11/04 A2995 RMK AO2 LTG DSNT N T01130041
K4V0 232255Z AUTO 11003KT 10SM SCT055 BKN065 BKN090 12/04 A2994 RMK AO2 LTG DSNT N AND SE T01180043
K4V0 232235Z AUTO 00000KT 10SM SCT049 BKN070 BKN090 12/04 A2994 RMK AO2 LTG DSNT NE AND NW T01150042
K4V0 232215Z AUTO 13005KT 10SM TS SCT036 SCT049 BKN070 10/05 A2995 RMK AO2 LTG DSNT SE T00960052
K4V0 232155Z AUTO 20007KT 5SM VCTSRA BKN036 BKN046 OVC055 09/03 A2996 RMK AO2 LTG DSNT ALQS T00900033
K4V0 232135Z AUTO 00000KT 10SM SCT048 BKN075 OVC095 11/04 A2994 RMK AO2 T01070040
K4V0 232115Z AUTO 25003KT 10SM SCT075 BKN095 11/04 A2993 RMK AO2 T01070035
K4V0 232055Z AUTO 00000KT 10SM TS SCT065 BKN080 BKN095 11/04 A2993 RMK AO2 LTG DSNT W T01050041
K4V0 232035Z AUTO 08003KT 10SM SCT060 BKN085 10/05 A2993 RMK AO2 LTG DSNT E T00960049
K4V0 232015Z AUTO 00000KT 10SM SCT031 SCT037 SCT050 09/04 A2995 RMK AO2 LTG DSNT SE T00860039
K4V0 231955Z AUTO 00000KT 10SM BKN034 BKN065 BKN110 08/04 A2996 RMK AO2 T00770043
K4V0 231935Z AUTO 13003KT 10SM TS BKN036 BKN044 07/04 A2995 RMK AO2 LTG DSNT S T00690044
K4V0 231915Z AUTO 00000KT 10SM TS SCT014 SCT030 BKN044 07/05 A2994 RMK AO2 LTG DSNT S T00690048
K4V0 231855Z AUTO 00000KT 10SM DZ SCT012 BKN030 OVC050 06/04 A2995 RMK AO2 LTG DSNT SW T00630043
K4V0 231835Z AUTO 10003KT 10SM SCT012 BKN040 OVC050 07/05 A2994 RMK AO2 T00680047
K4V0 231815Z AUTO 00000KT 5SM -RA SCT024 BKN038 OVC045 06/04 A2994 RMK AO2 T00560035
K4V0 231755Z AUTO 00000KT 10SM -RA SCT023 SCT028 OVC042 05/04 A2994 RMK AO2 T00530035 10087 20043
K4V0 231735Z AUTO 18004KT 5SM RA SCT014 BKN026 OVC033 05/04 A2996 RMK AO2 T00480036
K4V0 231715Z AUTO 23004KT 5SM RA BKN022 OVC035 04/03 A2995 RMK AO2 T00440034
K4V0 231655Z AUTO 26005KT 7SM RA SCT026 BKN035 OVC046 04/03 A2994 RMK AO2 T00430030
K4V0 231635Z AUTO 29006KT 10SM BKN046 BKN050 OVC080 08/05 A2990 RMK AO2 T00810045
K4V0 231615Z AUTO 00000KT 10SM SCT032 SCT050 OVC080 08/05 A2989 RMK AO2 LTG DSNT S T00770045
K4V0 231555Z AUTO 13003KT 10SM -DZ SCT033 BKN039 OVC080 07/05 A2989 RMK AO2 T00730050
K4V0 231535Z AUTO 17003KT 10SM -RA SCT038 OVC046 07/05 A2989 RMK AO2 T00730045
K4V0 231515Z AUTO 00000KT 10SM -DZ SCT037 BKN050 OVC075 07/04 A2990 RMK AO2 T00720037
K4V0 231455Z AUTO 26003KT 10SM SCT033 BKN041 OVC049 08/04 A2990 RMK AO2 T00750035
K4V0 231435Z AUTO 30010KT 10SM BKN041 OVC050 08/04 A2989 RMK AO2 T00810035
K4V0 231415Z AUTO 23007KT 10SM BKN050 OVC070 09/03 A2988 RMK AO2 T00850028
K4V0 231355Z AUTO 22006KT 10SM SCT070 BKN110 08/03 A2986 RMK AO2 T00840029
K4V0 231335Z AUTO 23005KT 10SM SCT080 BKN110 09/03 A2986 RMK AO2 LTG DSNT NE T00850032
K4V0 231315Z AUTO 19007KT 10SM SCT060 OVC080 08/04 A2985 RMK AO2 LTG DSNT NW T00820040
K4V0 231255Z AUTO 20007KT 10SM SCT050 BKN070 OVC080 08/04 A2986 RMK AO2 LTG DSNT S T00800040
K4V0 231235Z AUTO 19009KT 10SM BKN050 OVC060 09/04 A2987 RMK AO2 T00850040
K4V0 231215Z AUTO 20010G15KT 10SM BKN060 BKN075 OVC085 09/04 A2987 RMK AO2 LTG DSNT E T00850042
K4V0 231155Z AUTO 20008G17KT 10SM SCT047 BKN060 OVC085 09/04 A2988 RMK AO2 LTG DSNT E T00870042 10135 20087
K4V0 231135Z AUTO 20015G21KT 10SM -RA BKN047 OVC060 10/04 A2987 RMK AO2 LTG DSNT E T00950041
K4V0 231115Z AUTO 21008KT 10SM SCT049 BKN060 OVC070 10/05 A2986 RMK AO2 T01020050
K4V0 231055Z AUTO 21013G17KT 10SM SCT060 BKN075 OVC090 11/05 A2986 RMK AO2 T01070046
K4V0 231035Z AUTO 22011G15KT 190V250 10SM SCT045 BKN075 OVC110 10/05 A2986 RMK AO2 T01040048
K4V0 231015Z AUTO 00000KT 10SM -RA OVC048 10/06 A2988 RMK AO2 T00970058
K4V0 230955Z AUTO 23008KT 10SM -RA BKN050 BKN070 OVC085 12/04 A2989 RMK AO2 T01160043
K4V0 230935Z AUTO 23005KT 10SM SCT065 OVC095 12/04 A2990 RMK AO2 T01170035
K4V0 230915Z AUTO 25008KT 10SM SCT075 BKN095 OVC110 12/03 A2991 RMK AO2 T01240033
K4V0 230855Z AUTO 23013G19KT 10SM BKN090 OVC120 13/03 A2991 RMK AO2 T01270032
K4V0 230835Z AUTO 19003KT 10SM SCT080 OVC090 13/04 A2992 RMK AO2 T01250035
K4V0 230815Z AUTO 21007KT 10SM OVC090 12/04 A2992 RMK AO2 T01210041
K4V0 230755Z AUTO 19008KT 10SM OVC090 12/04 A2992 RMK AO2 T01210041
K4V0 230735Z AUTO 19009KT 10SM OVC090 12/04 A2992 RMK AO2 T01220042
K4V0 230715Z AUTO 19007G14KT 10SM OVC100 13/03 A2993 RMK AO2 T01300034
K4V0 230655Z AUTO 22006KT 10SM OVC100 13/03 A2993 RMK AO2 T01330033 401800025
K4V0 230635Z AUTO 22011G15KT 10SM SCT080 OVC100 13/04 A2994 RMK AO2 T01340035
K4V0 230615Z AUTO 21003KT 10SM BKN080 OVC110 12/04 A2994 RMK AO2 T01240039
K4V0 230555Z AUTO 19004KT 10SM OVC080 12/04 A2995 RMK AO2 T01240041 10156 20121
K4V0 230535Z AUTO 00000KT 10SM OVC080 12/04 A2995 RMK AO2 T01210042
K4V0 230515Z AUTO 19005KT 10SM OVC080 13/04 A2996 RMK AO2 T01260042
K4V0 230455Z AUTO 18008G14KT 10SM OVC080 13/04 A2996 RMK AO2 T01300041
K4V0 230435Z AUTO 16006KT 10SM OVC080 13/04 A2997 RMK AO2 T01300040
K4V0 230415Z AUTO 18010KT 10SM OVC080 13/04 A2997 RMK AO2 T01330040
K4V0 230355Z AUTO 20010G18KT 10SM OVC090 13/04 A2997 RMK AO2 T01320040
K4V0 230335Z AUTO 21007KT 10SM OVC100 13/04 A2998 RMK AO2 T01300040
K4V0 230315Z AUTO 19009G16KT 10SM OVC100 14/04 A2998 RMK AO2 T01350036
K4V0 230255Z AUTO 20006G09KT 10SM SCT080 SCT090 OVC120 14/03 A2998 RMK AO2 T01370033
K4V0 230235Z AUTO 23012G22KT 10SM SCT080 OVC110 14/03 A2997 RMK AO2 T01420032
K4V0 230215Z AUTO 23003KT 10SM BKN090 OVC110 14/03 A2999 RMK AO2 T01390031
K4V0 230155Z AUTO 20006KT 10SM OVC090 14/03 A2998 RMK AO2 T01420030
K4V0 230135Z AUTO 21008KT 10SM BKN080 OVC120 15/03 A2999 RMK AO2 T01450026
K4V0 230115Z AUTO 20013G18KT 10SM BKN075 BKN090 OVC120 15/02 A2997 RMK AO2 T01490023
K4V0 230055Z AUTO 19014G17KT 10SM OVC075 15/02 A2998 RMK AO2 T01520020
K4V0 230035Z AUTO 19010G18KT 10SM BKN075 OVC100 16/02 A2998 RMK AO2 T01550018
K4V0 230015Z AUTO 20012G18KT 10SM SCT075 SCT110 15/02 A2999 RMK AO2 T01510018
K4V0 222355Z AUTO 20017G21KT 10SM CLR 15/02 A2997 RMK AO2 T01500018 10180 20149
K4V0 222335Z AUTO 20018G22KT 10SM BKN100 15/02 A2997 RMK AO2 T01520020
K4V0 222315Z AUTO 21015G23KT 10SM OVC100 15/02 A2997 RMK AO2 T01530018
K4V0 222255Z AUTO 21013G21KT 10SM BKN110 16/01 A2998 RMK AO2 T01590014
K4V0 222235Z AUTO 22014G25KT 10SM BKN110 16/01 A2999 RMK AO2 T01620011
K4V0 222215Z AUTO 23016G24KT 10SM SCT075 BKN110 17/01 A3000 RMK AO2 T01700014
K4V0 222155Z AUTO 22018G30KT 10SM SCT032 BKN075 BKN085 17/02 A3000 RMK AO2 T01670016
K4V0 222135Z AUTO 22015G29KT 10SM BKN070 OVC110 17/01 A3000 RMK AO2 T01680012
K4V0 222115Z AUTO 21020G27KT 10SM OVC070 18/02 A3000 RMK AO2 T01790016
K4V0 222055Z AUTO 22017G29KT 10SM BKN070 BKN090 18/01 A3000 RMK AO2 T01770013
K4V0 222035Z AUTO 22016KT 10SM SCT070 BKN090 BKN120 18/01 A3001 RMK AO2 T01790014
K4V0 222015Z AUTO 21010G15KT 10SM SCT090 SCT120 17/01 A3002 RMK AO2 T01720013
K4V0 221955Z AUTO 22012G19KT 10SM BKN090 BKN110 17/01 A3004 RMK AO2 T01650010
K4V0 221935Z AUTO 20011G16KT 10SM OVC100 16/01 A3006 RMK AO2 T01640011
K4V0 221915Z AUTO 22014G19KT 10SM OVC085 15/01 A3007 RMK AO2 T01530006
K4V0 221855Z AUTO 24016G23KT 10SM OVC085 16/01 A3007 RMK AO2 T01600009
K4V0 221835Z AUTO 22016G28KT 10SM OVC085 16/01 A3007 RMK AO2 T01590007